Time;durP1;ratioP1;P1;durP2;ratioP2;P2;SDS_P1;SDS_P2;PMS_P1;PMS_P2;Temp;Humidity;BMP_temperature;BMP_pressure;BME280_temperature;BME280_humidity;BME280_pressure;Samples;Min_cycle;Max_cycle;Signal;HPM_P1;HPM_P2
2024/02/16 00:00:12;;;;;;;8.65;4.18;;;;;;;;;;6195108;28;20042;-82
2024/02/16 00:03:14;;;;;;;7.22;3.67;;;;;;;;;;6214314;28;20271;-79
2024/02/16 00:06:16;;;;;;;10.60;4.20;;;;;;;;;;6211639;28;20164;-81
2024/02/16 00:09:18;;;;;;;9.82;4.22;;;;;;;;;;6199141;28;20050;-79
2024/02/16 00:12:19;;;;;;;9.65;4.55;;;;;;;;;;6199927;28;20089;-80
2024/02/16 00:15:21;;;;;;;7.03;4.07;;;;;;;;;;6203689;28;20095;-79
2024/02/16 00:18:23;;;;;;;7.25;4.07;;;;;;;;;;6205884;28;20100;-79
2024/02/16 00:21:26;;;;;;;9.30;4.45;;;;;;;;;;6210956;28;20124;-80
2024/02/16 00:24:27;;;;;;;9.02;4.00;;;;;;;;;;6206871;28;20050;-79
2024/02/16 00:27:29;;;;;;;6.45;3.80;;;;;;;;;;6209478;28;20200;-80
2024/02/16 00:30:31;;;;;;;5.97;3.28;;;;;;;;;;6217692;28;20242;-79
2024/02/16 00:33:33;;;;;;;6.65;3.40;;;;;;;;;;6221610;28;20046;-82
2024/02/16 00:36:36;;;;;;;5.50;3.43;;;;;;;;;;6214144;28;20053;-78
2024/02/16 00:39:41;;;;;;;5.53;3.38;;;;;;;;;;6222922;28;20054;-80
2024/02/16 00:42:43;;;;;;;4.55;2.92;;;;;;;;;;6216729;28;20072;-81
2024/02/16 00:45:44;;;;;;;8.13;3.50;;;;;;;;;;6221800;28;20050;-79
2024/02/16 00:48:46;;;;;;;7.57;3.08;;;;;;;;;;6205600;28;20188;-81
2024/02/16 00:51:50;;;;;;;4.72;2.80;;;;;;;;;;6224738;28;20042;-81
2024/02/16 00:54:52;;;;;;;6.38;3.53;;;;;;;;;;6207625;28;20181;-83
2024/02/16 00:57:53;;;;;;;5.00;3.30;;;;;;;;;;6193944;28;20042;-82
2024/02/16 01:00:55;;;;;;;4.95;3.20;;;;;;;;;;6208646;28;20041;-80
2024/02/16 01:03:57;;;;;;;5.00;2.83;;;;;;;;;;6212305;28;20046;-78
2024/02/16 01:06:59;;;;;;;4.50;2.97;;;;;;;;;;6211140;28;20050;-82
2024/02/16 01:10:03;;;;;;;7.60;3.87;;;;;;;;;;6211037;28;20179;-79
2024/02/16 01:13:05;;;;;;;6.05;3.50;;;;;;;;;;6206887;28;20053;-82
2024/02/16 01:16:07;;;;;;;5.80;3.42;;;;;;;;;;6204620;28;20052;-82
2024/02/16 01:19:09;;;;;;;7.70;3.30;;;;;;;;;;6205846;28;20126;-82
2024/02/16 01:22:11;;;;;;;10.70;3.63;;;;;;;;;;6220397;28;20121;-82
2024/02/16 01:25:13;;;;;;;6.63;3.15;;;;;;;;;;6218506;28;20061;-82
2024/02/16 01:28:16;;;;;;;8.07;3.67;;;;;;;;;;6205822;28;20057;-81
2024/02/16 01:31:17;;;;;;;6.50;3.17;;;;;;;;;;6209982;28;20053;-79
2024/02/16 01:34:19;;;;;;;6.30;3.38;;;;;;;;;;6208716;28;20479;-81
2024/02/16 01:37:21;;;;;;;6.28;2.97;;;;;;;;;;6213578;28;20074;-81
2024/02/16 01:40:22;;;;;;;11.55;3.85;;;;;;;;;;6195139;28;20050;-78
2024/02/16 01:43:24;;;;;;;6.18;3.97;;;;;;;;;;6224901;28;20181;-81
2024/02/16 01:46:26;;;;;;;7.40;4.00;;;;;;;;;;6203439;28;20440;-80
2024/02/16 01:49:28;;;;;;;5.43;3.58;;;;;;;;;;6226239;28;20060;-81
2024/02/16 01:52:31;;;;;;;7.72;3.30;;;;;;;;;;6207489;28;20062;-81
2024/02/16 01:55:32;;;;;;;7.57;3.13;;;;;;;;;;6214658;28;20412;-80
2024/02/16 01:58:34;;;;;;;5.32;3.38;;;;;;;;;;6209788;28;20046;-82
2024/02/16 02:01:36;;;;;;;6.15;2.88;;;;;;;;;;6225879;28;20046;-81
2024/02/16 02:04:37;;;;;;;6.97;2.80;;;;;;;;;;6219601;28;20247;-80
2024/02/16 02:07:39;;;;;;;5.00;2.45;;;;;;;;;;6215060;28;20077;-80
2024/02/16 02:10:42;;;;;;;6.95;3.67;;;;;;;;;;6207838;28;20054;-79
2024/02/16 02:13:43;;;;;;;6.95;3.63;;;;;;;;;;6205367;28;20057;-82
2024/02/16 02:16:45;;;;;;;6.65;2.83;;;;;;;;;;6209156;28;20060;-81
2024/02/16 02:19:59;;;;;;;5.68;2.75;;;;;;;;;;6224457;28;20136;-81
2024/02/16 02:23:01;;;;;;;6.47;2.80;;;;;;;;;;6214835;28;20487;-81
2024/02/16 02:26:03;;;;;;;10.00;3.50;;;;;;;;;;6202510;28;20050;-82
2024/02/16 02:29:05;;;;;;;7.10;3.20;;;;;;;;;;6205608;28;20128;-81
2024/02/16 02:32:07;;;;;;;6.03;3.13;;;;;;;;;;6207076;28;20042;-80
2024/02/16 02:35:11;;;;;;;7.18;3.40;;;;;;;;;;6212568;28;20045;-79
2024/02/16 02:38:12;;;;;;;;;;;;;;;;;;6213470;28;20084;-81
2024/02/16 02:41:17;;;;;;;5.60;3.20;;;;;;;;;;6194818;28;19921;-83
2024/02/16 02:44:21;;;;;;;5.90;3.10;;;;;;;;;;6214184;28;20058;-79
2024/02/16 02:47:23;;;;;;;6.28;3.08;;;;;;;;;;6208418;28;20041;-79
2024/02/16 02:50:26;;;;;;;5.93;3.20;;;;;;;;;;6216685;28;20356;-79
2024/02/16 02:53:29;;;;;;;8.73;3.13;;;;;;;;;;6189478;28;20104;-79
2024/02/16 02:56:30;;;;;;;5.13;3.08;;;;;;;;;;6204516;28;20046;-81
2024/02/16 02:59:32;;;;;;;5.80;3.10;;;;;;;;;;6215580;28;20053;-80
2024/02/16 03:02:34;;;;;;;5.35;3.20;;;;;;;;;;6225364;28;20022;-77
2024/02/16 03:05:35;;;;;;;4.57;3.00;;;;;;;;;;6248769;28;20041;-77
2024/02/16 03:08:37;;;;;;;10.55;3.15;;;;;;;;;;6209400;28;20765;-81
2024/02/16 03:11:39;;;;;;;5.72;2.35;;;;;;;;;;6205959;28;20054;-80
2024/02/16 03:14:41;;;;;;;7.82;2.53;;;;;;;;;;6200471;28;20042;-79
2024/02/16 03:17:43;;;;;;;6.57;3.03;;;;;;;;;;6203359;28;20058;-81
2024/02/16 03:20:48;;;;;;;4.95;3.20;;;;;;;;;;6196911;28;20560;-82
2024/02/16 03:23:50;;;;;;;5.88;3.25;;;;;;;;;;6190801;28;20045;-81
2024/02/16 03:26:52;;;;;;;5.80;2.78;;;;;;;;;;6214357;28;20434;-80
2024/02/16 03:29:54;;;;;;;6.65;3.10;;;;;;;;;;6206030;28;20048;-82
2024/02/16 03:32:55;;;;;;;7.72;3.70;;;;;;;;;;6205560;28;20038;-81
2024/02/16 03:35:57;;;;;;;7.05;3.10;;;;;;;;;;6222302;28;20411;-81
2024/02/16 03:38:59;;;;;;;6.32;3.55;;;;;;;;;;6186760;28;20153;-82
2024/02/16 03:42:00;;;;;;;8.10;3.47;;;;;;;;;;6194022;28;20050;-81
2024/02/16 03:45:03;;;;;;;7.75;3.20;;;;;;;;;;6200006;28;20050;-79
2024/02/16 03:48:05;;;;;;;5.75;3.35;;;;;;;;;;6204962;28;20049;-78
2024/02/16 03:51:07;;;;;;;4.93;2.80;;;;;;;;;;6219527;28;20327;-82
2024/02/16 03:54:09;;;;;;;7.88;3.75;;;;;;;;;;6205527;28;20125;-78
2024/02/16 03:57:12;;;;;;;5.38;3.00;;;;;;;;;;6206673;28;20516;-82
2024/02/16 04:00:14;;;;;;;6.30;3.47;;;;;;;;;;6200072;28;20034;-79
2024/02/16 04:03:16;;;;;;;6.05;3.35;;;;;;;;;;6211781;28;20133;-80
2024/02/16 04:06:19;;;;;;;4.90;2.97;;;;;;;;;;6210444;28;20046;-80
2024/02/16 04:09:21;;;;;;;10.55;3.45;;;;;;;;;;6204581;28;20053;-78
2024/02/16 04:12:22;;;;;;;8.25;3.53;;;;;;;;;;6200241;28;20061;-79
2024/02/16 04:15:25;;;;;;;7.95;3.80;;;;;;;;;;6198896;28;20675;-81
2024/02/16 04:18:26;;;;;;;7.10;4.15;;;;;;;;;;6205519;28;20109;-81
2024/02/16 04:21:29;;;;;;;7.43;3.70;;;;;;;;;;6208100;28;20056;-80
2024/02/16 04:24:31;;;;;;;7.45;3.30;;;;;;;;;;6206152;28;20253;-81
2024/02/16 04:27:33;;;;;;;5.50;3.00;;;;;;;;;;6191629;28;20044;-80
2024/02/16 04:30:35;;;;;;;6.55;3.50;;;;;;;;;;6216266;28;20042;-78
2024/02/16 04:33:37;;;;;;;5.32;3.05;;;;;;;;;;6218589;28;20442;-81
2024/02/16 04:36:39;;;;;;;5.75;3.15;;;;;;;;;;6198323;28;20054;-81
2024/02/16 04:39:41;;;;;;;5.53;2.90;;;;;;;;;;6198588;28;20057;-80
2024/02/16 04:42:42;;;;;;;6.55;3.35;;;;;;;;;;6201195;28;20046;-79
2024/02/16 04:45:44;;;;;;;9.73;3.75;;;;;;;;;;6182990;28;20050;-79
2024/02/16 04:48:46;;;;;;;6.45;3.95;;;;;;;;;;6204936;28;20133;-79
2024/02/16 04:51:48;;;;;;;6.93;3.75;;;;;;;;;;6207817;28;20041;-79
2024/02/16 04:54:50;;;;;;;8.50;4.57;;;;;;;;;;6202131;28;20487;-81
2024/02/16 04:57:51;;;;;;;7.72;4.05;;;;;;;;;;6196427;28;20039;-81
2024/02/16 05:00:53;;;;;;;5.72;3.55;;;;;;;;;;6204657;28;20558;-81
2024/02/16 05:03:55;;;;;;;7.22;3.58;;;;;;;;;;6200248;28;20050;-80
2024/02/16 05:06:57;;;;;;;6.57;3.03;;;;;;;;;;6210025;28;20060;-82
2024/02/16 05:10:01;;;;;;;5.88;3.25;;;;;;;;;;6207553;28;20109;-81
2024/02/16 05:13:03;;;;;;;6.30;3.03;;;;;;;;;;6211151;28;20046;-79
2024/02/16 05:16:11;;;;;;;7.20;3.90;;;;;;;;;;6219508;28;20044;-81
2024/02/16 05:19:13;;;;;;;7.57;3.67;;;;;;;;;;6196023;28;20417;-80
2024/02/16 05:22:17;;;;;;;5.15;3.30;;;;;;;;;;6228381;28;20582;-80
2024/02/16 05:25:18;;;;;;;8.38;4.65;;;;;;;;;;6209181;28;20038;-81
2024/02/16 05:28:20;;;;;;;7.82;5.43;;;;;;;;;;6204771;28;20050;-80
2024/02/16 05:31:22;;;;;;;6.43;3.38;;;;;;;;;;6204342;28;20049;-80
2024/02/16 05:34:23;;;;;;;5.38;3.28;;;;;;;;;;6210519;28;20104;-82
2024/02/16 05:37:25;;;;;;;8.18;3.30;;;;;;;;;;6212444;28;20050;-80
2024/02/16 05:40:29;;;;;;;9.82;3.90;;;;;;;;;;6199678;28;20660;-80
2024/02/16 05:43:33;;;;;;;6.20;4.13;;;;;;;;;;6197237;28;20053;-81
2024/02/16 05:46:34;;;;;;;6.57;3.80;;;;;;;;;;6223158;28;20041;-78
2024/02/16 05:49:38;;;;;;;5.78;3.40;;;;;;;;;;6210318;28;20546;-82
2024/02/16 05:52:41;;;;;;;5.95;3.60;;;;;;;;;;6209591;28;20065;-80
2024/02/16 05:55:44;;;;;;;6.40;3.70;;;;;;;;;;6208161;28;20516;-80
2024/02/16 05:58:50;;;;;;;5.07;3.45;;;;;;;;;;6206541;28;20121;-80
2024/02/16 06:01:51;;;;;;;6.93;3.83;;;;;;;;;;6203969;28;20053;-80
2024/02/16 06:04:53;;;;;;;6.60;3.67;;;;;;;;;;6227518;28;20701;-81
2024/02/16 06:07:57;;;;;;;5.32;3.63;;;;;;;;;;6224417;28;20046;-79
2024/02/16 06:10:58;;;;;;;7.03;3.72;;;;;;;;;;6209161;28;20485;-82
2024/02/16 06:14:02;;;;;;;7.28;3.88;;;;;;;;;;6213447;28;20049;-80
2024/02/16 06:17:04;;;;;;;5.78;3.97;;;;;;;;;;6207033;28;20078;-79
2024/02/16 06:20:09;;;;;;;8.10;3.67;;;;;;;;;;6208682;28;20060;-82
2024/02/16 06:23:11;;;;;;;6.15;4.18;;;;;;;;;;6208620;28;20061;-79
2024/02/16 06:26:12;;;;;;;7.70;3.75;;;;;;;;;;6199618;28;20050;-80
2024/02/16 06:29:14;;;;;;;8.38;4.30;;;;;;;;;;6208467;28;20046;-82
2024/02/16 06:32:17;;;;;;;8.82;6.43;;;;;;;;;;6221111;28;20062;-82
2024/02/16 06:35:18;;;;;;;15.52;6.60;;;;;;;;;;6215366;28;20049;-81
2024/02/16 06:38:20;;;;;;;10.82;6.95;;;;;;;;;;6208508;28;20050;-82
2024/02/16 06:41:22;;;;;;;11.57;6.93;;;;;;;;;;6203732;28;20046;-83
2024/02/16 06:44:24;;;;;;;10.48;6.10;;;;;;;;;;6213331;28;20046;-84
2024/02/16 06:47:26;;;;;;;16.42;6.07;;;;;;;;;;6202385;28;20046;-82
2024/02/16 06:50:28;;;;;;;10.03;5.97;;;;;;;;;;6215773;28;20104;-82
2024/02/16 06:53:29;;;;;;;11.50;5.80;;;;;;;;;;6206079;28;20413;-82
2024/02/16 06:56:31;;;;;;;10.43;5.30;;;;;;;;;;6211397;28;20050;-83
2024/02/16 06:59:33;;;;;;;11.50;5.03;;;;;;;;;;6207893;28;20046;-82
2024/02/16 07:02:34;;;;;;;8.60;4.68;;;;;;;;;;6226580;28;20049;-80
2024/02/16 07:05:36;;;;;;;10.20;5.10;;;;;;;;;;6238073;28;20045;-81
2024/02/16 07:08:41;;;;;;;10.02;4.53;;;;;;;;;;6194140;28;20149;-83
2024/02/16 07:11:46;;;;;;;9.57;4.50;;;;;;;;;;6221307;28;20046;-84
2024/02/16 07:14:51;;;;;;;8.60;4.57;;;;;;;;;;6220112;28;20045;-81
2024/02/16 07:17:53;;;;;;;8.98;5.47;;;;;;;;;;6220817;28;20066;-84
2024/02/16 07:20:56;;;;;;;11.73;5.13;;;;;;;;;;6211720;28;20053;-82
2024/02/16 07:23:58;;;;;;;10.83;6.53;;;;;;;;;;6209294;28;20501;-82
2024/02/16 07:27:00;;;;;;;7.78;5.00;;;;;;;;;;6208531;28;20148;-81
2024/02/16 07:30:01;;;;;;;7.85;4.00;;;;;;;;;;6203392;28;20185;-83
2024/02/16 07:33:09;;;;;;;8.23;4.05;;;;;;;;;;6204776;28;20050;-80
2024/02/16 07:36:11;;;;;;;9.95;4.50;;;;;;;;;;6207122;28;20045;-83
2024/02/16 07:39:13;;;;;;;9.38;4.60;;;;;;;;;;6206582;28;20105;-83
2024/02/16 07:42:15;;;;;;;9.27;4.90;;;;;;;;;;6184371;28;20443;-82
2024/02/16 07:45:17;;;;;;;7.70;3.88;;;;;;;;;;6211922;28;20496;-82
2024/02/16 07:48:18;;;;;;;6.95;3.80;;;;;;;;;;6207736;28;20068;-79
2024/02/16 07:51:20;;;;;;;4.97;3.50;;;;;;;;;;6207863;28;20054;-82
2024/02/16 07:54:22;;;;;;;11.52;3.50;;;;;;;;;;6200662;28;20052;-84
2024/02/16 07:57:24;;;;;;;8.85;4.10;;;;;;;;;;6202633;28;20052;-82
2024/02/16 08:00:26;;;;;;;7.78;4.18;;;;;;;;;;6205132;28;20045;-83
2024/02/16 08:03:28;;;;;;;6.95;4.43;;;;;;;;;;6206826;28;20085;-82
2024/02/16 08:06:30;;;;;;;8.37;5.33;;;;;;;;;;6210702;28;20541;-82
2024/02/16 08:09:33;;;;;;;7.22;4.10;;;;;;;;;;6206109;28;20088;-82
2024/02/16 08:12:35;;;;;;;12.48;8.05;;;;;;;;;;6222109;28;20556;-83
2024/02/16 08:15:37;;;;;;;14.00;9.50;;;;;;;;;;6208087;28;20042;-80
2024/02/16 08:18:39;;;;;;;17.52;11.07;;;;;;;;;;6222761;28;20076;-80
2024/02/16 08:21:41;;;;;;;10.80;4.32;;;;;;;;;;6209439;28;20236;-83
2024/02/16 08:24:46;;;;;;;7.18;4.70;;;;;;;;;;6197154;28;20060;-81
2024/02/16 08:27:49;;;;;;;7.22;4.60;;;;;;;;;;6226694;28;20621;-81
2024/02/16 08:30:51;;;;;;;5.95;4.43;;;;;;;;;;6213839;28;20057;-82
2024/02/16 08:33:52;;;;;;;8.02;4.30;;;;;;;;;;6220050;28;20046;-81
2024/02/16 08:36:55;;;;;;;6.90;4.32;;;;;;;;;;6220711;28;20058;-82
2024/02/16 08:39:57;;;;;;;6.70;4.20;;;;;;;;;;6202147;28;20121;-84
2024/02/16 08:43:01;;;;;;;8.63;4.50;;;;;;;;;;6204311;28;20064;-83
2024/02/16 08:46:03;;;;;;;6.65;4.13;;;;;;;;;;6218803;28;20046;-82
2024/02/16 08:49:05;;;;;;;8.70;4.05;;;;;;;;;;6218896;28;20053;-83
2024/02/16 08:52:07;;;;;;;7.88;4.28;;;;;;;;;;6203038;28;20047;-84
2024/02/16 08:55:09;;;;;;;10.90;4.60;;;;;;;;;;6200533;28;20042;-82
2024/02/16 08:58:12;;;;;;;7.38;3.97;;;;;;;;;;6214764;28;20057;-83
2024/02/16 09:01:15;;;;;;;8.02;3.80;;;;;;;;;;6229776;28;20048;-83
2024/02/16 09:04:17;;;;;;;7.95;4.63;;;;;;;;;;6217970;28;20524;-82
2024/02/16 09:07:19;;;;;;;5.57;3.42;;;;;;;;;;6210968;28;20042;-82
2024/02/16 09:10:22;;;;;;;6.22;3.83;;;;;;;;;;6199951;28;20046;-83
2024/02/16 09:13:24;;;;;;;3.75;2.90;;;;;;;;;;6214960;28;20041;-83
2024/02/16 09:16:34;;;;;;;5.63;3.80;;;;;;;;;;6196621;28;20061;-81
2024/02/16 09:19:36;;;;;;;6.13;3.38;;;;;;;;;;6207959;28;20046;-79
2024/02/16 09:22:40;;;;;;;4.53;2.67;;;;;;;;;;6217434;28;20050;-83
2024/02/16 09:25:49;;;;;;;7.10;3.55;;;;;;;;;;6200982;28;20056;-82
2024/02/16 09:28:50;;;;;;;5.18;3.20;;;;;;;;;;6211594;28;20046;-82
2024/02/16 09:31:52;;;;;;;3.90;2.33;;;;;;;;;;6210742;28;20049;-82
2024/02/16 09:34:55;;;;;;;5.03;2.53;;;;;;;;;;6220664;28;20046;-83
2024/02/16 09:37:58;;;;;;;6.60;2.55;;;;;;;;;;6207304;28;20042;-82
2024/02/16 09:40:59;;;;;;;6.75;3.20;;;;;;;;;;6207233;28;20052;-83
2024/02/16 09:44:02;;;;;;;5.93;2.40;;;;;;;;;;6206050;28;20504;-82
2024/02/16 09:47:04;;;;;;;4.18;2.30;;;;;;;;;;6210381;28;20101;-83
2024/02/16 09:50:06;;;;;;;3.05;2.13;;;;;;;;;;6216007;28;20045;-83
2024/02/16 09:53:10;;;;;;;5.07;2.20;;;;;;;;;;6204465;28;20238;-83
2024/02/16 09:56:11;;;;;;;4.47;2.40;;;;;;;;;;6214825;28;20054;-82
2024/02/16 09:59:13;;;;;;;7.72;2.60;;;;;;;;;;6211355;28;20042;-83
2024/02/16 10:02:15;;;;;;;5.88;2.85;;;;;;;;;;6206313;28;20727;-83
2024/02/16 10:05:19;;;;;;;6.68;2.45;;;;;;;;;;6208994;28;20056;-83
2024/02/16 10:08:21;;;;;;;5.47;2.83;;;;;;;;;;6213975;28;20412;-83
2024/02/16 10:11:27;;;;;;;5.25;2.60;;;;;;;;;;6207135;28;20050;-82
2024/02/16 10:14:31;;;;;;;4.47;2.80;;;;;;;;;;6206403;28;20507;-83
2024/02/16 10:17:34;;;;;;;4.03;2.88;;;;;;;;;;6211187;28;20042;-83
2024/02/16 10:20:38;;;;;;;6.20;2.55;;;;;;;;;;6210352;28;20142;-83
2024/02/16 10:23:40;;;;;;;3.13;2.03;;;;;;;;;;6202957;28;20432;-82
2024/02/16 10:26:44;;;;;;;2.60;2.00;;;;;;;;;;6208090;28;20037;-82
2024/02/16 10:29:50;;;;;;;3.85;2.10;;;;;;;;;;6212748;28;20041;-83
2024/02/16 10:32:52;;;;;;;5.13;2.28;;;;;;;;;;6225328;28;20610;-83
2024/02/16 10:35:59;;;;;;;4.28;2.20;;;;;;;;;;6215395;28;20044;-84
2024/02/16 10:39:07;;;;;;;5.00;2.30;;;;;;;;;;6212215;28;20507;-84
2024/02/16 10:42:11;;;;;;;5.03;1.92;;;;;;;;;;6212268;28;20042;-83
2024/02/16 10:45:13;;;;;;;3.45;2.22;;;;;;;;;;6215555;28;20042;-83
2024/02/16 10:48:15;;;;;;;3.22;2.10;;;;;;;;;;6219970;28;20053;-83
2024/02/16 10:51:22;;;;;;;3.23;2.30;;;;;;;;;;6223779;28;20046;-82
2024/02/16 10:54:30;;;;;;;7.18;2.35;;;;;;;;;;6223209;28;20047;-83
2024/02/16 10:57:35;;;;;;;4.53;2.53;;;;;;;;;;6228953;28;20029;-82
2024/02/16 11:00:50;;;;;;;3.70;2.13;;;;;;;;;;6238838;28;20038;-82
2024/02/16 11:04:02;;;;;;;4.28;2.58;;;;;;;;;;6250980;28;20089;-83
2024/02/16 11:07:17;;;;;;;3.30;1.85;;;;;;;;;;6227017;28;20089;-83
2024/02/16 11:10:19;;;;;;;4.95;1.98;;;;;;;;;;6224664;28;20046;-85
2024/02/16 11:13:26;;;;;;;7.35;2.45;;;;;;;;;;6219064;28;20415;-83
2024/02/16 11:16:28;;;;;;;4.43;2.38;;;;;;;;;;6207551;28;20074;-84
2024/02/16 11:19:33;;;;;;;3.72;2.03;;;;;;;;;;6210601;28;20046;-84
2024/02/16 11:22:37;;;;;;;5.80;2.10;;;;;;;;;;6206253;28;20054;-84
2024/02/16 11:25:38;;;;;;;3.83;2.17;;;;;;;;;;6203260;28;20098;-83
2024/02/16 11:28:42;;;;;;;5.63;2.17;;;;;;;;;;6215745;28;20128;-83
2024/02/16 11:31:44;;;;;;;9.02;2.00;;;;;;;;;;6208304;28;20049;-83
2024/02/16 11:34:45;;;;;;;3.85;2.08;;;;;;;;;;6213086;28;20045;-84
2024/02/16 11:37:48;;;;;;;6.00;2.20;;;;;;;;;;6208379;28;20073;-83
2024/02/16 11:41:00;;;;;;;5.60;2.13;;;;;;;;;;6209271;28;20069;-84
2024/02/16 11:44:02;;;;;;;4.07;2.10;;;;;;;;;;6204711;28;20057;-83
2024/02/16 11:47:05;;;;;;;6.55;2.45;;;;;;;;;;6220827;28;20049;-83
2024/02/16 11:50:10;;;;;;;3.10;1.95;;;;;;;;;;6188951;28;20046;-84
2024/02/16 11:53:18;;;;;;;6.50;2.10;;;;;;;;;;6207282;28;20120;-83
2024/02/16 11:56:24;;;;;;;3.42;2.05;;;;;;;;;;6202391;28;20070;-84
2024/02/16 11:59:26;;;;;;;4.78;2.10;;;;;;;;;;6210925;28;20064;-84
2024/02/16 12:02:28;;;;;;;5.07;1.80;;;;;;;;;;6188904;28;20057;-84
2024/02/16 12:05:29;;;;;;;6.22;2.08;;;;;;;;;;6234120;28;20041;-85
2024/02/16 12:08:36;;;;;;;4.63;2.15;;;;;;;;;;6216270;28;20065;-84
2024/02/16 12:11:38;;;;;;;4.85;2.33;;;;;;;;;;6225270;28;20508;-84
2024/02/16 12:14:40;;;;;;;5.22;2.58;;;;;;;;;;6212901;28;20143;-84
2024/02/16 12:17:42;;;;;;;4.30;1.80;;;;;;;;;;6212973;28;20484;-84
2024/02/16 12:20:47;;;;;;;4.75;1.90;;;;;;;;;;6210656;28;20056;-84
2024/02/16 12:23:49;;;;;;;4.50;2.05;;;;;;;;;;6212049;28;20058;-84
2024/02/16 12:26:50;;;;;;;3.45;1.95;;;;;;;;;;6210636;28;20076;-84
2024/02/16 12:29:52;;;;;;;4.72;2.00;;;;;;;;;;6227909;28;20049;-83
2024/02/16 12:32:54;;;;;;;4.13;1.87;;;;;;;;;;6216700;28;20056;-82
2024/02/16 12:35:56;;;;;;;5.15;2.30;;;;;;;;;;6223171;28;20046;-83
2024/02/16 12:38:58;;;;;;;5.18;2.35;;;;;;;;;;6231807;28;20033;-83
2024/02/16 12:41:59;;;;;;;4.68;2.03;;;;;;;;;;6233558;28;20050;-85
2024/02/16 12:45:01;;;;;;;5.50;2.22;;;;;;;;;;6216293;28;20046;-84
2024/02/16 12:48:04;;;;;;;3.58;2.22;;;;;;;;;;6214314;28;20072;-84
2024/02/16 12:51:06;;;;;;;5.32;2.25;;;;;;;;;;6213736;28;20057;-84
2024/02/16 12:54:13;;;;;;;3.30;2.13;;;;;;;;;;6209550;28;20060;-83
2024/02/16 12:57:15;;;;;;;4.88;2.22;;;;;;;;;;6205095;28;20045;-84
2024/02/16 13:00:17;;;;;;;8.13;2.42;;;;;;;;;;6207617;28;20053;-84
2024/02/16 13:03:19;;;;;;;6.30;2.93;;;;;;;;;;6212069;28;20256;-85
2024/02/16 13:06:21;;;;;;;2.53;1.63;;;;;;;;;;6212072;28;20452;-85
2024/02/16 13:09:28;;;;;;;3.45;2.00;;;;;;;;;;6207460;28;20046;-84
2024/02/16 13:12:31;;;;;;;6.07;2.17;;;;;;;;;;6221866;28;20428;-84
2024/02/16 13:15:32;;;;;;;5.00;2.20;;;;;;;;;;6208833;28;20046;-83
2024/02/16 13:18:34;;;;;;;4.22;1.92;;;;;;;;;;6209450;28;20050;-84
2024/02/16 13:21:36;;;;;;;8.48;2.20;;;;;;;;;;6209061;28;20069;-85
2024/02/16 13:24:38;;;;;;;3.90;2.22;;;;;;;;;;6216389;28;20043;-83
2024/02/16 13:27:40;;;;;;;5.22;2.17;;;;;;;;;;6195737;28;20057;-84
2024/02/16 13:30:42;;;;;;;3.80;2.40;;;;;;;;;;6214568;28;20123;-84
2024/02/16 13:33:44;;;;;;;6.37;2.13;;;;;;;;;;6215686;28;20148;-84
2024/02/16 13:36:46;;;;;;;4.93;2.03;;;;;;;;;;6196028;28;20180;-84
2024/02/16 13:39:48;;;;;;;5.45;2.45;;;;;;;;;;6206503;28;20054;-84
2024/02/16 13:42:49;;;;;;;7.22;2.63;;;;;;;;;;6213653;28;20046;-84
2024/02/16 13:45:52;;;;;;;4.30;2.00;;;;;;;;;;6213823;28;20053;-84
2024/02/16 13:48:56;;;;;;;8.15;2.40;;;;;;;;;;6212942;28;20041;-84
2024/02/16 13:51:58;;;;;;;6.07;2.50;;;;;;;;;;6193178;28;20049;-85
2024/02/16 13:55:00;;;;;;;8.07;2.30;;;;;;;;;;6214802;28;20061;-83
2024/02/16 13:58:02;;;;;;;3.92;2.35;;;;;;;;;;6197957;28;20053;-84
2024/02/16 14:01:04;;;;;;;3.70;2.35;;;;;;;;;;6209490;28;20058;-84
2024/02/16 14:04:06;;;;;;;3.75;2.20;;;;;;;;;;6189040;28;20499;-83
2024/02/16 14:07:09;;;;;;;5.45;2.05;;;;;;;;;;6211362;28;20539;-85
2024/02/16 14:10:11;;;;;;;;;;;;;;;;;;6211561;28;20041;-84
2024/02/16 14:13:13;;;;;;;5.15;2.30;;;;;;;;;;6200919;28;19972;-84
2024/02/16 14:16:15;;;;;;;5.38;2.33;;;;;;;;;;6204453;28;20042;-82
2024/02/16 14:19:16;;;;;;;6.57;2.40;;;;;;;;;;6222984;28;20118;-81
2024/02/16 14:22:18;;;;;;;4.45;2.20;;;;;;;;;;6209105;28;20053;-81
2024/02/16 14:25:20;;;;;;;4.80;2.58;;;;;;;;;;6209659;28;20050;-80
2024/02/16 14:28:22;;;;;;;6.35;2.53;;;;;;;;;;6202813;28;20042;-81
2024/02/16 14:31:24;;;;;;;4.40;2.72;;;;;;;;;;6196452;28;20160;-81
2024/02/16 14:34:25;;;;;;;5.68;2.80;;;;;;;;;;6211155;28;20046;-81
2024/02/16 14:37:28;;;;;;;5.88;2.83;;;;;;;;;;6210776;28;20649;-83
2024/02/16 14:40:29;;;;;;;4.85;2.58;;;;;;;;;;6205855;28;20147;-84
2024/02/16 14:43:32;;;;;;;4.25;3.05;;;;;;;;;;6250477;28;20034;-83
2024/02/16 14:46:34;;;;;;;6.75;3.00;;;;;;;;;;6236661;28;20531;-83
2024/02/16 14:49:36;;;;;;;5.57;3.20;;;;;;;;;;6224403;28;20416;-83
2024/02/16 14:52:42;;;;;;;5.27;2.63;;;;;;;;;;6215765;28;20058;-83
2024/02/16 14:55:44;;;;;;;8.07;2.85;;;;;;;;;;6218642;28;20058;-84
2024/02/16 14:58:47;;;;;;;4.88;2.70;;;;;;;;;;6214890;28;20570;-84
2024/02/16 15:01:49;;;;;;;5.25;2.80;;;;;;;;;;6205919;28;20056;-83
2024/02/16 15:04:53;;;;;;;5.85;3.00;;;;;;;;;;6195264;28;20046;-83
2024/02/16 15:07:54;;;;;;;6.47;3.15;;;;;;;;;;6194290;28;20113;-82
2024/02/16 15:10:56;;;;;;;5.07;2.92;;;;;;;;;;6197701;28;20045;-84
2024/02/16 15:13:58;;;;;;;6.18;2.88;;;;;;;;;;6207398;28;20420;-83
2024/02/16 15:17:00;;;;;;;5.20;3.15;;;;;;;;;;6208145;28;20042;-82
2024/02/16 15:20:03;;;;;;;4.85;3.42;;;;;;;;;;6201670;28;20072;-82
2024/02/16 15:23:05;;;;;;;8.75;3.80;;;;;;;;;;6215744;28;20231;-83
2024/02/16 15:26:10;;;;;;;7.32;3.80;;;;;;;;;;6204459;28;20398;-82
2024/02/16 15:29:13;;;;;;;6.50;3.78;;;;;;;;;;6197174;28;20064;-83
2024/02/16 15:32:15;;;;;;;7.00;4.47;;;;;;;;;;6202657;28;20045;-82
2024/02/16 15:35:17;;;;;;;6.80;3.85;;;;;;;;;;6207051;28;20050;-82
2024/02/16 15:38:20;;;;;;;5.78;3.80;;;;;;;;;;6204947;28;20046;-82
2024/02/16 15:41:23;;;;;;;8.68;4.25;;;;;;;;;;6208958;28;20046;-81
2024/02/16 15:44:27;;;;;;;9.70;4.25;;;;;;;;;;6228085;28;20050;-82
2024/02/16 15:47:30;;;;;;;7.82;4.47;;;;;;;;;;6228422;28;20043;-81
2024/02/16 15:50:32;;;;;;;6.50;4.97;;;;;;;;;;6186890;28;20060;-80
2024/02/16 15:53:34;;;;;;;9.77;5.57;;;;;;;;;;6205482;28;20046;-81
2024/02/16 15:56:36;;;;;;;8.57;5.50;;;;;;;;;;6220305;28;20421;-81
2024/02/16 15:59:38;;;;;;;12.10;6.30;;;;;;;;;;6204318;28;20042;-81
2024/02/16 16:02:40;;;;;;;8.35;5.47;;;;;;;;;;6206170;28;20453;-80
2024/02/16 16:05:41;;;;;;;11.23;6.78;;;;;;;;;;6208518;28;20047;-83
2024/02/16 16:08:45;;;;;;;8.73;5.28;;;;;;;;;;6218021;28;20050;-82
2024/02/16 16:11:46;;;;;;;11.00;5.47;;;;;;;;;;6197330;28;20045;-83
2024/02/16 16:14:48;;;;;;;9.85;5.90;;;;;;;;;;6202464;28;20102;-82
2024/02/16 16:17:50;;;;;;;10.70;5.78;;;;;;;;;;6202799;28;20065;-81
2024/02/16 16:20:51;;;;;;;7.45;4.97;;;;;;;;;;6216653;28;20053;-81
2024/02/16 16:23:53;;;;;;;11.43;5.72;;;;;;;;;;6196625;28;20057;-81
2024/02/16 16:26:55;;;;;;;10.43;5.65;;;;;;;;;;6196772;28;20050;-81
2024/02/16 16:29:57;;;;;;;11.70;5.30;;;;;;;;;;6203102;28;20104;-82
2024/02/16 16:32:59;;;;;;;11.23;5.07;;;;;;;;;;6216354;28;20132;-82
2024/02/16 16:36:03;;;;;;;8.23;4.90;;;;;;;;;;6210276;28;20042;-81
2024/02/16 16:39:05;;;;;;;9.38;5.53;;;;;;;;;;6201130;28;20840;-83
2024/02/16 16:42:07;;;;;;;9.60;6.13;;;;;;;;;;6195546;28;20496;-81
2024/02/16 16:45:12;;;;;;;8.18;5.25;;;;;;;;;;6200846;28;20050;-81
2024/02/16 16:48:14;;;;;;;10.88;5.72;;;;;;;;;;6198070;28;20046;-82
2024/02/16 16:51:18;;;;;;;10.57;7.13;;;;;;;;;;6198797;28;20453;-80
2024/02/16 16:54:21;;;;;;;9.40;5.53;;;;;;;;;;6203107;28;20049;-83
2024/02/16 16:57:24;;;;;;;16.38;7.40;;;;;;;;;;6215397;28;20053;-82
2024/02/16 17:00:27;;;;;;;17.03;7.80;;;;;;;;;;6188412;28;20054;-82
2024/02/16 17:03:29;;;;;;;12.90;6.82;;;;;;;;;;6200502;28;20046;-83
2024/02/16 17:06:31;;;;;;;11.20;6.50;;;;;;;;;;6202719;28;20691;-81
2024/02/16 17:09:33;;;;;;;15.23;7.33;;;;;;;;;;6219669;28;20057;-81
2024/02/16 17:12:35;;;;;;;9.98;5.85;;;;;;;;;;6207666;28;20557;-83
2024/02/16 17:15:37;;;;;;;10.07;6.30;;;;;;;;;;6224808;28;20050;-82
2024/02/16 17:18:38;;;;;;;10.95;6.93;;;;;;;;;;6209294;28;20050;-82
2024/02/16 17:21:40;;;;;;;8.35;5.75;;;;;;;;;;6224767;28;20112;-82
2024/02/16 17:24:43;;;;;;;12.37;6.93;;;;;;;;;;6210174;28;20054;-81
2024/02/16 17:27:44;;;;;;;9.93;6.53;;;;;;;;;;6207340;28;20567;-81
2024/02/16 17:30:47;;;;;;;12.13;6.57;;;;;;;;;;6208052;28;20049;-80
2024/02/16 17:33:48;;;;;;;12.45;7.13;;;;;;;;;;6202805;28;20042;-82
2024/02/16 17:36:51;;;;;;;11.73;7.10;;;;;;;;;;6206747;28;20678;-82
2024/02/16 17:39:52;;;;;;;11.10;7.13;;;;;;;;;;6208501;28;20270;-82
2024/02/16 17:42:56;;;;;;;10.55;7.30;;;;;;;;;;6189485;28;20056;-83
2024/02/16 17:45:58;;;;;;;11.73;7.60;;;;;;;;;;6212379;28;20129;-82
2024/02/16 17:49:00;;;;;;;11.68;6.72;;;;;;;;;;6209534;28;20497;-82
2024/02/16 17:52:02;;;;;;;9.90;6.57;;;;;;;;;;6216165;28;20065;-81
2024/02/16 17:55:04;;;;;;;10.20;5.88;;;;;;;;;;6206621;28;20038;-83
2024/02/16 17:58:09;;;;;;;10.05;5.57;;;;;;;;;;6224772;28;20116;-82
2024/02/16 18:01:11;;;;;;;10.93;5.90;;;;;;;;;;6210426;28;20044;-82
2024/02/16 18:04:13;;;;;;;7.55;5.22;;;;;;;;;;6212773;28;20054;-82
2024/02/16 18:07:15;;;;;;;11.00;6.13;;;;;;;;;;6213036;28;20134;-79
2024/02/16 18:10:17;;;;;;;10.88;6.10;;;;;;;;;;6225218;28;20079;-82